sensor_id;sensor_type;location;lat;lon;timestamp;pressure;altitude;pressure_sealevel;temperature;humidity
66524;BME280;53350;52.210;5.160;2023-11-21T00:00:22;101113.25;;;10.17;78.10
66524;BME280;53350;52.210;5.160;2023-11-21T00:02:49;101119.25;;;10.16;78.17
66524;BME280;53350;52.210;5.160;2023-11-21T00:05:16;101115.84;;;10.13;78.24
66524;BME280;53350;52.210;5.160;2023-11-21T00:07:44;101119.28;;;10.10;78.28
66524;BME280;53350;52.210;5.160;2023-11-21T00:10:11;101121.88;;;10.08;78.15
66524;BME280;53350;52.210;5.160;2023-11-21T00:12:39;101137.34;;;10.07;78.15
66524;BME280;53350;52.210;5.160;2023-11-21T00:15:07;101133.88;;;10.06;78.28
66524;BME280;53350;52.210;5.160;2023-11-21T00:17:36;101125.38;;;10.00;78.30
66524;BME280;53350;52.210;5.160;2023-11-21T00:20:03;101134.78;;;10.05;78.21
66524;BME280;53350;52.210;5.160;2023-11-21T00:22:31;101128.78;;;10.00;78.12
66524;BME280;53350;52.210;5.160;2023-11-21T00:24:59;101139.94;;;9.99;78.13
66524;BME280;53350;52.210;5.160;2023-11-21T00:27:26;101134.78;;;9.98;78.08
66524;BME280;53350;52.210;5.160;2023-11-21T00:29:52;101145.09;;;9.96;78.13
66524;BME280;53350;52.210;5.160;2023-11-21T00:32:18;101136.56;;;9.92;78.13
66524;BME280;53350;52.210;5.160;2023-11-21T00:34:45;101139.13;;;9.91;78.18
66524;BME280;53350;52.210;5.160;2023-11-21T00:37:11;101137.41;;;9.90;78.04
66524;BME280;53350;52.210;5.160;2023-11-21T00:39:38;101136.56;;;9.88;78.10
66524;BME280;53350;52.210;5.160;2023-11-21T00:42:06;101140.84;;;9.87;78.03
66524;BME280;53350;52.210;5.160;2023-11-21T00:44:33;101146.00;;;9.86;77.77
66524;BME280;53350;52.210;5.160;2023-11-21T00:47:00;101140.03;;;9.84;77.87
66524;BME280;53350;52.210;5.160;2023-11-21T00:49:26;101144.28;;;9.83;77.84
66524;BME280;53350;52.210;5.160;2023-11-21T00:51:53;101149.44;;;9.80;77.93
66524;BME280;53350;52.210;5.160;2023-11-21T00:54:19;101158.06;;;9.78;77.88
66524;BME280;53350;52.210;5.160;2023-11-21T00:56:46;101158.03;;;9.76;78.11
66524;BME280;53350;52.210;5.160;2023-11-21T00:59:14;101150.34;;;9.74;77.88
66524;BME280;53350;52.210;5.160;2023-11-21T01:01:41;101157.19;;;9.75;78.18
66524;BME280;53350;52.210;5.160;2023-11-21T01:04:07;101159.75;;;9.77;78.20
66524;BME280;53350;52.210;5.160;2023-11-21T01:06:33;101163.19;;;9.79;78.49
66524;BME280;53350;52.210;5.160;2023-11-21T01:09:00;101161.47;;;9.81;78.56
66524;BME280;53350;52.210;5.160;2023-11-21T01:11:26;101169.19;;;9.83;78.49
66524;BME280;53350;52.210;5.160;2023-11-21T01:13:53;101162.31;;;9.85;78.75
66524;BME280;53350;52.210;5.160;2023-11-21T01:16:21;101165.72;;;9.87;78.90
66524;BME280;53350;52.210;5.160;2023-11-21T01:18:47;101175.16;;;9.89;78.90
66524;BME280;53350;52.210;5.160;2023-11-21T01:21:13;101170.88;;;9.90;78.89
66524;BME280;53350;52.210;5.160;2023-11-21T01:23:40;101172.59;;;9.91;79.00
66524;BME280;53350;52.210;5.160;2023-11-21T01:26:06;101166.56;;;9.95;79.21
66524;BME280;53350;52.210;5.160;2023-11-21T01:28:33;101163.09;;;9.98;79.28
66524;BME280;53350;52.210;5.160;2023-11-21T01:31:00;101169.97;;;10.00;79.48
66524;BME280;53350;52.210;5.160;2023-11-21T01:33:27;101175.97;;;10.01;79.48
66524;BME280;53350;52.210;5.160;2023-11-21T01:35:54;101175.97;;;10.04;79.73
66524;BME280;53350;52.210;5.160;2023-11-21T01:38:20;101186.25;;;10.07;79.81
66524;BME280;53350;52.210;5.160;2023-11-21T01:40:47;101192.22;;;10.10;79.98
66524;BME280;53350;52.210;5.160;2023-11-21T01:43:14;101193.06;;;10.13;79.87
66524;BME280;53350;52.210;5.160;2023-11-21T01:45:40;101196.50;;;10.12;79.97
66524;BME280;53350;52.210;5.160;2023-11-21T01:48:07;101200.78;;;10.14;80.29
66524;BME280;53350;52.210;5.160;2023-11-21T01:50:36;101194.78;;;10.17;80.41
66524;BME280;53350;52.210;5.160;2023-11-21T01:53:03;101193.88;;;10.22;80.42
66524;BME280;53350;52.210;5.160;2023-11-21T01:55:29;101203.31;;;10.25;80.56
66524;BME280;53350;52.210;5.160;2023-11-21T01:57:56;101204.16;;;10.29;80.57
66524;BME280;53350;52.210;5.160;2023-11-21T02:00:23;101206.72;;;10.29;80.69
66524;BME280;53350;52.210;5.160;2023-11-21T02:02:51;101208.41;;;10.30;80.53
66524;BME280;53350;52.210;5.160;2023-11-21T02:05:18;101216.16;;;10.31;80.63
66524;BME280;53350;52.210;5.160;2023-11-21T02:07:46;101217.88;;;10.34;80.76
66524;BME280;53350;52.210;5.160;2023-11-21T02:10:14;101219.59;;;10.36;80.76
66524;BME280;53350;52.210;5.160;2023-11-21T02:12:40;101224.72;;;10.39;81.12
66524;BME280;53350;52.210;5.160;2023-11-21T02:15:08;101230.72;;;10.41;81.01
66524;BME280;53350;52.210;5.160;2023-11-21T02:17:40;101228.13;;;10.44;81.01
66524;BME280;53350;52.210;5.160;2023-11-21T02:20:07;101220.38;;;10.48;81.09
66524;BME280;53350;52.210;5.160;2023-11-21T02:22:38;101224.69;;;10.49;81.03
66524;BME280;53350;52.210;5.160;2023-11-21T02:25:08;101233.25;;;10.49;80.96
66524;BME280;53350;52.210;5.160;2023-11-21T02:27:35;101234.09;;;10.50;81.12
66524;BME280;53350;52.210;5.160;2023-11-21T02:30:01;101229.81;;;10.52;81.28
66524;BME280;53350;52.210;5.160;2023-11-21T02:32:29;101235.78;;;10.54;81.28
66524;BME280;53350;52.210;5.160;2023-11-21T02:34:56;101232.38;;;10.55;81.10
66524;BME280;53350;52.210;5.160;2023-11-21T02:37:26;101232.38;;;10.55;81.36
66524;BME280;53350;52.210;5.160;2023-11-21T02:39:52;101230.66;;;10.54;81.08
66524;BME280;53350;52.210;5.160;2023-11-21T02:42:20;101232.38;;;10.52;80.89
66524;BME280;53350;52.210;5.160;2023-11-21T02:44:46;101238.41;;;10.49;81.38
66524;BME280;53350;52.210;5.160;2023-11-21T02:47:13;101238.41;;;10.51;81.80
66524;BME280;53350;52.210;5.160;2023-11-21T02:49:39;101237.53;;;10.52;81.59
66524;BME280;53350;52.210;5.160;2023-11-21T02:52:06;101231.53;;;10.54;81.71
66524;BME280;53350;52.210;5.160;2023-11-21T02:54:32;101235.78;;;10.55;81.43
66524;BME280;53350;52.210;5.160;2023-11-21T02:57:01;101228.06;;;10.55;81.46
66524;BME280;53350;52.210;5.160;2023-11-21T02:59:29;101232.38;;;10.55;81.61
66524;BME280;53350;52.210;5.160;2023-11-21T03:01:56;101243.50;;;10.55;81.80
66524;BME280;53350;52.210;5.160;2023-11-21T03:04:23;101233.22;;;10.55;81.54
66524;BME280;53350;52.210;5.160;2023-11-21T03:06:49;101232.38;;;10.53;81.56
66524;BME280;53350;52.210;5.160;2023-11-21T03:09:16;101233.22;;;10.52;81.39
66524;BME280;53350;52.210;5.160;2023-11-21T03:11:42;101224.69;;;10.49;81.60
66524;BME280;53350;52.210;5.160;2023-11-21T03:14:09;101236.69;;;10.50;81.95
66524;BME280;53350;52.210;5.160;2023-11-21T03:16:37;101239.22;;;10.53;82.26
66524;BME280;53350;52.210;5.160;2023-11-21T03:19:04;101240.09;;;10.56;81.76
66524;BME280;53350;52.210;5.160;2023-11-21T03:21:31;101240.06;;;10.59;81.78
66524;BME280;53350;52.210;5.160;2023-11-21T03:23:57;101244.34;;;10.60;81.86
66524;BME280;53350;52.210;5.160;2023-11-21T03:26:25;101251.22;;;10.63;81.80
66524;BME280;53350;52.210;5.160;2023-11-21T03:28:51;101250.31;;;10.66;81.86
66524;BME280;53350;52.210;5.160;2023-11-21T03:31:18;101247.72;;;10.67;81.80
66524;BME280;53350;52.210;5.160;2023-11-21T03:33:46;101246.03;;;10.66;81.55
66524;BME280;53350;52.210;5.160;2023-11-21T03:36:13;101250.34;;;10.64;81.65
66524;BME280;53350;52.210;5.160;2023-11-21T03:38:41;101250.34;;;10.61;81.67
66524;BME280;53350;52.210;5.160;2023-11-21T03:41:08;101256.34;;;10.61;82.05
66524;BME280;53350;52.210;5.160;2023-11-21T03:43:35;101258.03;;;10.66;82.11
66524;BME280;53350;52.210;5.160;2023-11-21T03:46:02;101256.34;;;10.68;82.20
66524;BME280;53350;52.210;5.160;2023-11-21T03:48:28;101259.75;;;10.68;81.68
66524;BME280;53350;52.210;5.160;2023-11-21T03:50:56;101259.78;;;10.65;81.78
66524;BME280;53350;52.210;5.160;2023-11-21T03:53:22;101258.94;;;10.65;82.01
66524;BME280;53350;52.210;5.160;2023-11-21T03:55:49;101266.66;;;10.66;82.19
66524;BME280;53350;52.210;5.160;2023-11-21T03:58:15;101275.19;;;10.71;82.26
66524;BME280;53350;52.210;5.160;2023-11-21T04:00:42;101267.44;;;10.74;82.23
66524;BME280;53350;52.210;5.160;2023-11-21T04:03:08;101268.31;;;10.76;82.09
66524;BME280;53350;52.210;5.160;2023-11-21T04:05:35;101288.06;;;10.79;82.21
66524;BME280;53350;52.210;5.160;2023-11-21T04:08:03;101288.88;;;10.83;82.19
66524;BME280;53350;52.210;5.160;2023-11-21T04:10:29;101290.59;;;10.85;82.19
66524;BME280;53350;52.210;5.160;2023-11-21T04:12:56;101295.75;;;10.85;82.03
66524;BME280;53350;52.210;5.160;2023-11-21T04:15:22;101295.72;;;10.87;81.97
66524;BME280;53350;52.210;5.160;2023-11-21T04:17:49;101297.47;;;10.86;82.09
66524;BME280;53350;52.210;5.160;2023-11-21T04:20:15;101294.88;;;10.88;82.23
66524;BME280;53350;52.210;5.160;2023-11-21T04:22:43;101295.72;;;10.88;82.28
66524;BME280;53350;52.210;5.160;2023-11-21T04:25:13;101303.44;;;10.88;82.26
66524;BME280;53350;52.210;5.160;2023-11-21T04:27:40;101308.59;;;10.90;82.71
66524;BME280;53350;52.210;5.160;2023-11-21T04:30:09;101311.16;;;10.91;82.26
66524;BME280;53350;52.210;5.160;2023-11-21T04:32:36;101325.75;;;10.94;82.41
66524;BME280;53350;52.210;5.160;2023-11-21T04:35:02;101330.91;;;10.95;82.49
66524;BME280;53350;52.210;5.160;2023-11-21T04:37:29;101330.88;;;10.97;82.45
66524;BME280;53350;52.210;5.160;2023-11-21T04:39:56;101322.28;;;11.00;82.30
66524;BME280;53350;52.210;5.160;2023-11-21T04:42:24;101323.13;;;11.02;82.32
66524;BME280;53350;52.210;5.160;2023-11-21T04:44:50;101329.13;;;11.01;82.28
66524;BME280;53350;52.210;5.160;2023-11-21T04:47:17;101329.16;;;10.99;81.97
66524;BME280;53350;52.210;5.160;2023-11-21T04:49:45;101332.63;;;10.96;82.03
66524;BME280;53350;52.210;5.160;2023-11-21T04:52:13;101329.19;;;10.94;82.21
66524;BME280;53350;52.210;5.160;2023-11-21T04:54:39;101328.34;;;10.94;82.34
66524;BME280;53350;52.210;5.160;2023-11-21T04:57:06;101324.03;;;10.93;82.24
66524;BME280;53350;52.210;5.160;2023-11-21T04:59:33;101324.03;;;10.93;82.32
66524;BME280;53350;52.210;5.160;2023-11-21T05:02:00;101338.63;;;10.94;82.39
66524;BME280;53350;52.210;5.160;2023-11-21T05:04:26;101336.91;;;10.96;82.73
66524;BME280;53350;52.210;5.160;2023-11-21T05:06:53;101349.78;;;10.98;82.61
66524;BME280;53350;52.210;5.160;2023-11-21T05:09:19;101351.47;;;11.00;82.63
66524;BME280;53350;52.210;5.160;2023-11-21T05:11:47;101349.75;;;11.04;82.23
66524;BME280;53350;52.210;5.160;2023-11-21T05:14:13;101348.03;;;11.06;82.62
66524;BME280;53350;52.210;5.160;2023-11-21T05:16:41;101340.28;;;11.07;82.61
66524;BME280;53350;52.210;5.160;2023-11-21T05:19:08;101344.59;;;11.05;82.23
66524;BME280;53350;52.210;5.160;2023-11-21T05:21:34;101360.94;;;11.03;82.79
66524;BME280;53350;52.210;5.160;2023-11-21T05:24:01;101359.19;;;11.05;82.75
66524;BME280;53350;52.210;5.160;2023-11-21T05:26:27;101361.75;;;11.05;82.77
66524;BME280;53350;52.210;5.160;2023-11-21T05:28:54;101367.78;;;11.07;82.70
66524;BME280;53350;52.210;5.160;2023-11-21T05:31:20;101368.63;;;11.09;82.86
66524;BME280;53350;52.210;5.160;2023-11-21T05:33:48;101362.59;;;11.10;82.86
66524;BME280;53350;52.210;5.160;2023-11-21T05:36:14;101372.06;;;11.12;82.84
66524;BME280;53350;52.210;5.160;2023-11-21T05:38:41;101374.63;;;11.12;82.94
66524;BME280;53350;52.210;5.160;2023-11-21T05:41:07;101376.31;;;11.13;82.95
66524;BME280;53350;52.210;5.160;2023-11-21T05:43:36;101384.03;;;11.15;82.86
66524;BME280;53350;52.210;5.160;2023-11-21T05:46:02;101398.66;;;11.14;82.77
66524;BME280;53350;52.210;5.160;2023-11-21T05:48:29;101396.94;;;11.13;83.05
66524;BME280;53350;52.210;5.160;2023-11-21T05:50:57;101397.81;;;11.16;83.09
66524;BME280;53350;52.210;5.160;2023-11-21T05:53:24;101402.97;;;11.17;83.12
66524;BME280;53350;52.210;5.160;2023-11-21T05:55:50;101401.22;;;11.19;83.10
66524;BME280;53350;52.210;5.160;2023-11-21T05:58:17;101411.53;;;11.21;83.06
66524;BME280;53350;52.210;5.160;2023-11-21T06:00:43;101402.06;;;11.23;83.15
66524;BME280;53350;52.210;5.160;2023-11-21T06:03:09;101407.22;;;11.24;83.21
66524;BME280;53350;52.210;5.160;2023-11-21T06:05:37;101408.94;;;11.27;83.34
66524;BME280;53350;52.210;5.160;2023-11-21T06:08:05;101417.50;;;11.29;83.29
66524;BME280;53350;52.210;5.160;2023-11-21T06:10:32;101413.19;;;11.29;83.20
66524;BME280;53350;52.210;5.160;2023-11-21T06:12:59;101426.09;;;11.29;83.06
66524;BME280;53350;52.210;5.160;2023-11-21T06:15:25;101433.81;;;11.29;83.06
66524;BME280;53350;52.210;5.160;2023-11-21T06:17:52;101436.41;;;11.29;83.25
66524;BME280;53350;52.210;5.160;2023-11-21T06:20:19;101431.25;;;11.29;82.99
66524;BME280;53350;52.210;5.160;2023-11-21T06:22:46;101430.38;;;11.30;83.31
66524;BME280;53350;52.210;5.160;2023-11-21T06:25:14;101435.53;;;11.30;83.39
66524;BME280;53350;52.210;5.160;2023-11-21T06:27:42;101436.41;;;11.33;83.47
66524;BME280;53350;52.210;5.160;2023-11-21T06:30:10;101435.50;;;11.35;83.43
66524;BME280;53350;52.210;5.160;2023-11-21T06:32:37;101438.94;;;11.37;83.32
66524;BME280;53350;52.210;5.160;2023-11-21T06:35:06;101438.06;;;11.38;83.63
66524;BME280;53350;52.210;5.160;2023-11-21T06:37:33;101445.81;;;11.43;83.77
66524;BME280;53350;52.210;5.160;2023-11-21T06:40:00;101444.91;;;11.45;83.92
66524;BME280;53350;52.210;5.160;2023-11-21T06:42:30;101444.03;;;11.48;83.44
66524;BME280;53350;52.210;5.160;2023-11-21T06:44:57;101449.19;;;11.48;84.00
66524;BME280;53350;52.210;5.160;2023-11-21T06:47:24;101463.78;;;11.52;84.56
66524;BME280;53350;52.210;5.160;2023-11-21T06:49:51;101465.53;;;11.50;84.85
66524;BME280;53350;52.210;5.160;2023-11-21T06:52:18;101456.06;;;11.51;85.08
66524;BME280;53350;52.210;5.160;2023-11-21T06:54:45;101467.22;;;11.53;85.35
66524;BME280;53350;52.210;5.160;2023-11-21T06:57:12;101472.38;;;11.53;85.88
66524;BME280;53350;52.210;5.160;2023-11-21T06:59:40;101476.66;;;11.55;86.33
66524;BME280;53350;52.210;5.160;2023-11-21T07:02:07;101477.53;;;11.56;86.76
66524;BME280;53350;52.210;5.160;2023-11-21T07:04:34;101478.41;;;11.53;87.16
66524;BME280;53350;52.210;5.160;2023-11-21T07:07:01;101492.09;;;11.61;87.34
66524;BME280;53350;52.210;5.160;2023-11-21T07:09:28;101487.81;;;11.62;87.08
66524;BME280;53350;52.210;5.160;2023-11-21T07:11:56;101489.53;;;11.64;87.58
66524;BME280;53350;52.210;5.160;2023-11-21T07:14:22;101495.53;;;11.63;88.13
66524;BME280;53350;52.210;5.160;2023-11-21T07:16:50;101501.53;;;11.67;88.01
66524;BME280;53350;52.210;5.160;2023-11-21T07:19:17;101496.34;;;11.70;87.90
66524;BME280;53350;52.210;5.160;2023-11-21T07:21:45;101493.78;;;11.72;88.02
66524;BME280;53350;52.210;5.160;2023-11-21T07:24:11;101490.31;;;11.74;88.36
66524;BME280;53350;52.210;5.160;2023-11-21T07:26:37;101496.34;;;11.76;88.44
66524;BME280;53350;52.210;5.160;2023-11-21T07:29:04;101507.50;;;11.78;88.44
66524;BME280;53350;52.210;5.160;2023-11-21T07:31:31;101511.81;;;11.76;88.30
66524;BME280;53350;52.210;5.160;2023-11-21T07:34:00;101510.94;;;11.74;88.87
66524;BME280;53350;52.210;5.160;2023-11-21T07:36:27;101521.28;;;11.73;89.55
66524;BME280;53350;52.210;5.160;2023-11-21T07:38:53;101522.13;;;11.78;89.20
66524;BME280;53350;52.210;5.160;2023-11-21T07:41:20;101532.44;;;11.78;89.14
66524;BME280;53350;52.210;5.160;2023-11-21T07:43:47;101538.47;;;11.77;89.26
66524;BME280;53350;52.210;5.160;2023-11-21T07:46:14;101529.88;;;11.76;89.58
66524;BME280;53350;52.210;5.160;2023-11-21T07:48:41;101553.13;;;11.73;90.18
66524;BME280;53350;52.210;5.160;2023-11-21T07:51:10;101546.25;;;11.74;89.97
66524;BME280;53350;52.210;5.160;2023-11-21T07:53:38;101547.09;;;11.74;89.96
66524;BME280;53350;52.210;5.160;2023-11-21T07:56:06;101549.69;;;11.73;90.28
66524;BME280;53350;52.210;5.160;2023-11-21T07:58:34;101554.81;;;11.74;90.33
66524;BME280;53350;52.210;5.160;2023-11-21T08:01:00;101552.28;;;11.68;90.23
66524;BME280;53350;52.210;5.160;2023-11-21T08:03:27;101568.63;;;11.72;90.62
66524;BME280;53350;52.210;5.160;2023-11-21T08:05:55;101577.19;;;11.75;90.64
66524;BME280;53350;52.210;5.160;2023-11-21T08:08:23;101577.19;;;11.75;90.66
66524;BME280;53350;52.210;5.160;2023-11-21T08:10:50;101583.22;;;11.80;90.88
66524;BME280;53350;52.210;5.160;2023-11-21T08:13:21;101587.50;;;11.80;90.96
66524;BME280;53350;52.210;5.160;2023-11-21T08:15:48;101580.63;;;11.77;91.17
66524;BME280;53350;52.210;5.160;2023-11-21T08:18:14;101594.41;;;11.78;91.15
66524;BME280;53350;52.210;5.160;2023-11-21T08:20:41;101595.25;;;11.78;90.94
66524;BME280;53350;52.210;5.160;2023-11-21T08:23:08;101601.28;;;11.74;91.87
66524;BME280;53350;52.210;5.160;2023-11-21T08:25:36;101596.09;;;11.77;91.38
66524;BME280;53350;52.210;5.160;2023-11-21T08:28:02;101614.19;;;11.73;91.54
66524;BME280;53350;52.210;5.160;2023-11-21T08:30:30;101619.34;;;11.80;92.21
66524;BME280;53350;52.210;5.160;2023-11-21T08:32:57;101611.56;;;11.87;91.79
66524;BME280;53350;52.210;5.160;2023-11-21T08:35:23;101621.03;;;11.86;91.94
66524;BME280;53350;52.210;5.160;2023-11-21T08:37:51;101633.91;;;11.91;92.15
66524;BME280;53350;52.210;5.160;2023-11-21T08:40:17;101627.88;;;11.93;92.25
66524;BME280;53350;52.210;5.160;2023-11-21T08:42:46;101636.47;;;11.98;91.89
66524;BME280;53350;52.210;5.160;2023-11-21T08:45:13;101640.78;;;11.93;91.87
66524;BME280;53350;52.210;5.160;2023-11-21T08:47:39;101648.53;;;11.99;91.67
66524;BME280;53350;52.210;5.160;2023-11-21T08:50:07;101651.97;;;12.02;91.49
66524;BME280;53350;52.210;5.160;2023-11-21T08:52:33;101657.09;;;12.05;91.74
66524;BME280;53350;52.210;5.160;2023-11-21T08:55:02;101660.59;;;11.96;91.41
66524;BME280;53350;52.210;5.160;2023-11-21T08:57:32;101666.63;;;11.89;91.84
66524;BME280;53350;52.210;5.160;2023-11-21T09:00:01;101676.09;;;11.88;91.54
66524;BME280;53350;52.210;5.160;2023-11-21T09:02:27;101679.53;;;11.87;91.59
66524;BME280;53350;52.210;5.160;2023-11-21T09:04:54;101682.13;;;11.84;91.97
66524;BME280;53350;52.210;5.160;2023-11-21T09:07:20;101678.69;;;11.87;91.80
66524;BME280;53350;52.210;5.160;2023-11-21T09:09:47;101674.38;;;11.86;91.80
66524;BME280;53350;52.210;5.160;2023-11-21T09:12:14;101677.81;;;11.89;91.61
66524;BME280;53350;52.210;5.160;2023-11-21T09:14:41;101689.88;;;11.95;91.33
66524;BME280;53350;52.210;5.160;2023-11-21T09:17:09;101694.19;;;11.83;91.58
66524;BME280;53350;52.210;5.160;2023-11-21T09:19:37;101694.22;;;11.79;91.49
66524;BME280;53350;52.210;5.160;2023-11-21T09:22:03;101705.41;;;11.75;91.87
66524;BME280;53350;52.210;5.160;2023-11-21T09:24:30;101703.66;;;11.78;91.33
66524;BME280;53350;52.210;5.160;2023-11-21T09:26:56;101705.38;;;11.79;91.06
66524;BME280;53350;52.210;5.160;2023-11-21T09:29:23;101713.97;;;11.78;91.15
66524;BME280;53350;52.210;5.160;2023-11-21T09:31:49;101719.16;;;11.78;91.24
66524;BME280;53350;52.210;5.160;2023-11-21T09:34:17;101729.47;;;11.80;91.11
66524;BME280;53350;52.210;5.160;2023-11-21T09:36:45;101731.19;;;11.81;90.78
66524;BME280;53350;52.210;5.160;2023-11-21T09:39:11;101740.66;;;11.73;91.20
66524;BME280;53350;52.210;5.160;2023-11-21T09:41:43;101743.25;;;11.73;91.35
66524;BME280;53350;52.210;5.160;2023-11-21T09:44:13;101741.53;;;11.76;91.02
66524;BME280;53350;52.210;5.160;2023-11-21T09:46:41;101751.00;;;11.73;91.10
66524;BME280;53350;52.210;5.160;2023-11-21T09:49:09;101753.56;;;11.79;90.67
66524;BME280;53350;52.210;5.160;2023-11-21T09:51:39;101749.28;;;11.76;90.58
66524;BME280;53350;52.210;5.160;2023-11-21T09:54:05;101759.63;;;11.72;90.88
66524;BME280;53350;52.210;5.160;2023-11-21T09:56:34;101756.16;;;11.74;90.75
66524;BME280;53350;52.210;5.160;2023-11-21T09:59:01;101759.59;;;11.76;90.44
66524;BME280;53350;52.210;5.160;2023-11-21T10:01:32;101763.88;;;11.76;90.75
66524;BME280;53350;52.210;5.160;2023-11-21T10:03:59;101760.44;;;11.81;90.51
66524;BME280;53350;52.210;5.160;2023-11-21T10:06:26;101767.31;;;11.86;89.91
66524;BME280;53350;52.210;5.160;2023-11-21T10:08:54;101771.63;;;11.85;90.33
66524;BME280;53350;52.210;5.160;2023-11-21T10:11:24;101782.78;;;11.87;90.10
66524;BME280;53350;52.210;5.160;2023-11-21T10:13:52;101781.94;;;11.90;89.64
66524;BME280;53350;52.210;5.160;2023-11-21T10:16:22;101789.66;;;11.93;89.30
66524;BME280;53350;52.210;5.160;2023-11-21T10:18:52;101793.13;;;11.87;89.69
66524;BME280;53350;52.210;5.160;2023-11-21T10:21:20;101800.03;;;11.80;89.76
66524;BME280;53350;52.210;5.160;2023-11-21T10:23:47;101806.88;;;11.83;89.60
66524;BME280;53350;52.210;5.160;2023-11-21T10:26:15;101813.75;;;11.90;89.43
66524;BME280;53350;52.210;5.160;2023-11-21T10:28:54;101821.56;;;11.95;89.34
66524;BME280;53350;52.210;5.160;2023-11-21T10:31:21;101824.13;;;11.98;89.33
66524;BME280;53350;52.210;5.160;2023-11-21T10:33:49;101826.72;;;11.95;89.06
66524;BME280;53350;52.210;5.160;2023-11-21T10:36:24;101843.06;;;11.88;89.29
66524;BME280;53350;52.210;5.160;2023-11-21T10:38:52;101843.91;;;11.87;89.50
66524;BME280;53350;52.210;5.160;2023-11-21T10:41:20;101843.06;;;11.88;89.19
66524;BME280;53350;52.210;5.160;2023-11-21T10:43:47;101838.75;;;11.83;89.58
66524;BME280;53350;52.210;5.160;2023-11-21T10:46:14;101843.91;;;11.88;89.15
66524;BME280;53350;52.210;5.160;2023-11-21T10:48:41;101844.75;;;11.87;89.08
66524;BME280;53350;52.210;5.160;2023-11-21T10:51:08;101848.22;;;11.86;88.90
66524;BME280;53350;52.210;5.160;2023-11-21T10:53:38;101850.78;;;11.78;89.18
66524;BME280;53350;52.210;5.160;2023-11-21T10:56:06;101851.66;;;11.85;88.82
66524;BME280;53350;52.210;5.160;2023-11-21T10:58:36;101849.91;;;11.86;88.50
66524;BME280;53350;52.210;5.160;2023-11-21T11:01:06;101862.81;;;11.84;88.82
66524;BME280;53350;52.210;5.160;2023-11-21T11:03:34;101862.00;;;11.79;88.90
66524;BME280;53350;52.210;5.160;2023-11-21T11:06:02;101868.00;;;11.86;88.85
66524;BME280;53350;52.210;5.160;2023-11-21T11:08:29;101876.63;;;11.88;89.02
66524;BME280;53350;52.210;5.160;2023-11-21T11:10:56;101876.63;;;11.88;88.85
66524;BME280;53350;52.210;5.160;2023-11-21T11:13:23;101878.31;;;11.86;89.31
66524;BME280;53350;52.210;5.160;2023-11-21T11:15:58;101881.75;;;11.84;88.96
66524;BME280;53350;52.210;5.160;2023-11-21T11:18:25;101883.47;;;11.84;89.06
66524;BME280;53350;52.210;5.160;2023-11-21T11:20:53;101880.03;;;11.68;89.91
66524;BME280;53350;52.210;5.160;2023-11-21T11:23:33;101873.16;;;11.79;89.12
66524;BME280;53350;52.210;5.160;2023-11-21T11:26:11;101874.88;;;11.73;90.10
66524;BME280;53350;52.210;5.160;2023-11-21T11:28:44;101876.59;;;11.78;89.39
66524;BME280;53350;52.210;5.160;2023-11-21T11:31:24;101874.00;;;11.80;89.45
66524;BME280;53350;52.210;5.160;2023-11-21T11:33:57;101885.22;;;11.85;89.24
66524;BME280;53350;52.210;5.160;2023-11-21T11:36:28;101886.06;;;11.84;89.29
66524;BME280;53350;52.210;5.160;2023-11-21T11:38:56;101892.97;;;11.83;89.11
66524;BME280;53350;52.210;5.160;2023-11-21T11:41:26;101887.78;;;11.71;89.35
66524;BME280;53350;52.210;5.160;2023-11-21T11:43:54;101902.41;;;11.72;88.99
66524;BME280;53350;52.210;5.160;2023-11-21T11:46:40;101894.66;;;11.77;88.69
66524;BME280;53350;52.210;5.160;2023-11-21T11:49:07;101904.16;;;11.79;89.09
66524;BME280;53350;52.210;5.160;2023-11-21T11:51:34;101922.22;;;11.84;88.39
66524;BME280;53350;52.210;5.160;2023-11-21T11:54:01;101920.47;;;11.84;88.20
66524;BME280;53350;52.210;5.160;2023-11-21T11:56:29;101913.59;;;11.85;87.69
66524;BME280;53350;52.210;5.160;2023-11-21T11:59:00;101917.03;;;11.89;87.33
66524;BME280;53350;52.210;5.160;2023-11-21T12:01:31;101916.19;;;11.88;87.12
66524;BME280;53350;52.210;5.160;2023-11-21T12:04:23;101920.50;;;11.91;87.06
66524;BME280;53350;52.210;5.160;2023-11-21T12:06:51;101917.03;;;11.84;87.74
66524;BME280;53350;52.210;5.160;2023-11-21T12:09:18;101917.03;;;11.87;87.57
66524;BME280;53350;52.210;5.160;2023-11-21T12:11:45;101916.19;;;11.76;88.48
66524;BME280;53350;52.210;5.160;2023-11-21T12:14:12;101931.69;;;11.79;87.70
66524;BME280;53350;52.210;5.160;2023-11-21T12:16:40;101922.22;;;11.79;88.11
66524;BME280;53350;52.210;5.160;2023-11-21T12:19:08;101922.22;;;11.76;88.19
66524;BME280;53350;52.210;5.160;2023-11-21T12:21:36;101923.06;;;11.78;88.05
66524;BME280;53350;52.210;5.160;2023-11-21T12:24:03;101926.53;;;11.80;88.18
66524;BME280;53350;52.210;5.160;2023-11-21T12:26:29;101928.25;;;11.88;87.73
66524;BME280;53350;52.210;5.160;2023-11-21T12:28:56;101936.84;;;11.91;88.02
66524;BME280;53350;52.210;5.160;2023-11-21T12:31:22;101940.25;;;11.92;87.67
66524;BME280;53350;52.210;5.160;2023-11-21T12:33:50;101942.03;;;11.94;87.62
66524;BME280;53350;52.210;5.160;2023-11-21T12:36:17;101944.59;;;11.97;87.71
66524;BME280;53350;52.210;5.160;2023-11-21T12:38:44;101948.03;;;11.89;88.53
66524;BME280;53350;52.210;5.160;2023-11-21T12:41:10;101951.47;;;11.91;87.95
66524;BME280;53350;52.210;5.160;2023-11-21T12:43:37;101950.59;;;11.89;88.17
66524;BME280;53350;52.210;5.160;2023-11-21T12:46:05;101954.91;;;11.87;88.16
66524;BME280;53350;52.210;5.160;2023-11-21T12:48:32;101960.94;;;11.86;88.79
66524;BME280;53350;52.210;5.160;2023-11-21T12:51:00;101962.66;;;11.85;88.42